Time;durP1;ratioP1;P1;durP2;ratioP2;P2;SDS_P1;SDS_P2;PMS_P1;PMS_P2;Temp;Humidity;BMP_temperature;BMP_pressure;BME280_temperature;BME280_humidity;BME280_pressure;Samples;Min_cycle;Max_cycle;Signal;HPM_P1;HPM_P2
2022/09/10 00:01:19;;;;;;;;;;;16.50;74.00;;;;;;5088864;28;20088;-79
2022/09/10 00:03:47;;;;;;;8.90;8.48;;;16.50;74.10;;;;;;5089591;28;20450;-78
2022/09/10 00:06:13;;;;;;;12.10;11.60;;;16.40;74.00;;;;;;5089452;28;20044;-78
2022/09/10 00:08:39;;;;;;;12.55;11.95;;;16.40;74.00;;;;;;5088263;28;20028;-78
2022/09/10 00:11:08;;;;;;;12.68;12.07;;;16.30;74.00;;;;;;5088253;28;20401;-78
2022/09/10 00:13:35;;;;;;;13.63;13.02;;;16.20;74.00;;;;;;5088570;28;20116;-77
2022/09/10 00:16:03;;;;;;;11.05;10.55;;;16.20;74.10;;;;;;5088138;28;20053;-78
2022/09/10 00:18:29;;;;;;;12.20;11.70;;;16.10;74.00;;;;;;5089078;28;20373;-78
2022/09/10 00:20:57;;;;;;;14.63;14.02;;;16.00;74.10;;;;;;5089464;28;20111;-78
2022/09/10 00:23:28;;;;;;;13.10;12.50;;;15.90;74.10;;;;;;5087857;28;20026;-78
2022/09/10 00:25:56;;;;;;;13.95;13.35;;;15.80;74.10;;;;;;5087728;28;20034;-78
2022/09/10 00:28:24;;;;;;;13.85;13.25;;;15.80;74.30;;;;;;5089159;28;20024;-78
2022/09/10 00:30:53;;;;;;;12.82;12.23;;;15.70;74.30;;;;;;5087587;28;20035;-78
2022/09/10 00:33:20;;;;;;;14.60;14.00;;;15.70;74.20;;;;;;5087762;28;20024;-78
2022/09/10 00:35:47;;;;;;;11.98;11.48;;;15.60;74.10;;;;;;5088889;28;20016;-78
2022/09/10 00:38:13;;;;;;;;;;;15.60;74.10;;;;;;5088230;28;20481;-78
2022/09/10 00:40:40;;;;;;;13.75;13.15;;;15.60;74.10;;;;;;5087557;28;19904;-78
2022/09/10 00:43:15;;;;;;;12.18;11.68;;;15.50;74.00;;;;;;5089038;28;20035;-78
2022/09/10 00:45:42;;;;;;;12.38;11.82;;;15.40;74.10;;;;;;5087343;28;20020;-78
2022/09/10 00:48:30;;;;;;;14.10;13.50;;;15.30;74.10;;;;;;5088847;28;20022;-78
2022/09/10 00:50:57;;;;;;;13.75;13.15;;;15.30;74.10;;;;;;5088648;28;20032;-78
2022/09/10 00:53:27;;;;;;;15.23;14.57;;;15.30;74.10;;;;;;5088641;28;20024;-78
2022/09/10 00:55:57;;;;;;;16.48;15.77;;;15.20;74.00;;;;;;5087282;28;20438;-78
2022/09/10 00:58:26;;;;;;;17.67;16.98;;;15.20;74.00;;;;;;5087403;28;20035;-78
2022/09/10 01:00:57;;;;;;;17.50;16.80;;;15.10;74.10;;;;;;5088823;28;20023;-78
2022/09/10 01:03:23;;;;;;;14.80;14.20;;;15.00;74.10;;;;;;5088793;28;20030;-78
2022/09/10 01:05:49;;;;;;;;;;;15.00;74.20;;;;;;5089020;28;20118;-78
2022/09/10 01:08:17;;;;;;;18.90;18.10;;;15.00;74.20;;;;;;5087395;28;20384;-78
2022/09/10 01:10:49;;;;;;;16.88;16.17;;;14.90;74.00;;;;;;5087237;28;20039;-78
2022/09/10 01:13:33;;;;;;;16.73;16.02;;;14.80;74.10;;;;;;5088633;28;20012;-78
2022/09/10 01:16:14;;;;;;;16.13;15.43;;;14.80;74.60;;;;;;5086985;28;20024;-78
2022/09/10 01:18:48;;;;;;;17.63;16.92;;;14.70;74.20;;;;;;5088610;28;20024;-78
2022/09/10 01:21:35;;;;;;;14.75;14.15;;;14.70;74.30;;;;;;5088365;28;20380;-77
2022/09/10 01:24:19;;;;;;;17.40;16.70;;;14.60;74.40;;;;;;5087201;28;20089;-77
2022/09/10 01:27:12;;;;;;;16.73;16.02;;;14.60;74.40;;;;;;5086953;28;20016;-78
2022/09/10 01:29:37;;;;;;;19.60;18.80;;;14.70;74.30;;;;;;5086428;28;20043;-78
2022/09/10 01:32:14;;;;;;;16.15;15.45;;;14.70;74.30;;;;;;5086860;28;20484;-78
2022/09/10 01:34:51;;;;;;;16.58;15.88;;;14.70;74.20;;;;;;5088258;28;20054;-77
2022/09/10 01:37:23;;;;;;;15.98;15.27;;;14.60;74.20;;;;;;5086868;28;20388;-78
2022/09/10 01:39:51;;;;;;;14.75;14.15;;;14.60;74.40;;;;;;5086821;28;20031;-78
2022/09/10 01:42:17;;;;;;;15.98;15.27;;;14.50;74.30;;;;;;5088401;28;20349;-78
2022/09/10 01:44:50;;;;;;;15.05;14.45;;;14.40;74.30;;;;;;5053262;28;20057;-78
2022/09/10 01:48:00;;;;;;;11.65;11.15;;;14.40;74.30;;;;;;5086563;28;20035;-78
2022/09/10 01:50:42;;;;;;;15.85;15.15;;;14.40;74.30;;;;;;5063151;28;20488;-78
2022/09/10 01:53:10;;;;;;;13.50;12.90;;;14.40;74.20;;;;;;5088008;28;20052;-77
2022/09/10 01:55:54;;;;;;;14.52;13.93;;;14.30;74.30;;;;;;5086537;28;20023;-78
2022/09/10 01:58:38;;;;;;;17.75;17.05;;;14.20;74.30;;;;;;5086654;28;20133;-78
2022/09/10 02:01:10;;;;;;;17.80;17.10;;;14.20;74.30;;;;;;5087945;28;20048;-78
2022/09/10 02:03:38;;;;;;;16.63;15.93;;;14.30;74.30;;;;;;5086337;28;20032;-78
2022/09/10 02:06:08;;;;;;;13.65;13.05;;;14.30;74.20;;;;;;5086676;28;20028;-78
2022/09/10 02:08:38;;;;;;;16.15;15.45;;;14.30;74.00;;;;;;5086618;28;20031;-78
2022/09/10 02:11:05;;;;;;;19.48;18.67;;;14.30;74.10;;;;;;5086499;28;20023;-78
2022/09/10 02:13:33;;;;;;;15.48;14.80;;;14.30;74.20;;;;;;5087586;28;20472;-77
2022/09/10 02:16:02;;;;;;;14.25;13.65;;;14.20;74.10;;;;;;5069486;28;20052;-78
2022/09/10 02:18:31;;;;;;;14.23;13.63;;;14.20;74.30;;;;;;5087580;28;20021;-78
2022/09/10 02:20:58;;;;;;;13.55;12.95;;;14.20;74.30;;;;;;5087869;28;20062;-78
2022/09/10 02:23:41;;;;;;;10.68;10.18;;;14.10;74.30;;;;;;5069522;28;20059;-78
2022/09/10 02:26:08;;;;;;;11.27;10.77;;;14.10;74.30;;;;;;5086098;28;20020;-78
2022/09/10 02:28:34;;;;;;;12.48;11.90;;;14.10;74.10;;;;;;5069684;28;20024;-78
2022/09/10 02:31:00;;;;;;;14.13;13.52;;;14.00;74.10;;;;;;5086176;28;20036;-78
2022/09/10 02:33:26;;;;;;;12.35;11.80;;;13.90;74.20;;;;;;5086386;28;20028;-78
2022/09/10 02:35:52;;;;;;;12.20;11.68;;;13.80;74.30;;;;;;5086162;28;20028;-78
2022/09/10 02:38:18;;;;;;;12.23;11.73;;;13.80;74.40;;;;;;5086149;28;20024;-78
2022/09/10 02:40:47;;;;;;;13.00;12.40;;;13.90;74.40;;;;;;5088510;28;20379;-78
2022/09/10 02:43:14;;;;;;;13.15;12.55;;;13.90;74.30;;;;;;5091343;28;20016;-78
2022/09/10 02:45:39;;;;;;;;;;;13.90;74.20;;;;;;5090486;28;20028;-78
2022/09/10 02:48:05;;;;;;;14.48;13.88;;;13.90;74.20;;;;;;5090094;28;20291;-78
2022/09/10 02:50:32;;;;;;;13.45;12.85;;;13.80;74.10;;;;;;5090107;28;20036;-78
2022/09/10 02:52:59;;;;;;;13.18;12.57;;;13.80;74.20;;;;;;5090061;28;20028;-78
2022/09/10 02:55:30;;;;;;;16.15;15.45;;;13.80;74.20;;;;;;5056538;28;20032;-78
2022/09/10 02:57:57;;;;;;;16.15;15.45;;;13.80;74.20;;;;;;5072877;28;20055;-78
2022/09/10 03:00:23;;;;;;;16.52;15.82;;;13.80;74.20;;;;;;5089971;28;20074;-78
2022/09/10 03:02:49;;;;;;;17.27;16.58;;;13.80;74.20;;;;;;5089816;28;20032;-78
2022/09/10 03:05:15;;;;;;;;;;;13.80;74.30;;;;;;5090220;28;20036;-78
2022/09/10 03:07:42;;;;;;;12.63;12.02;;;13.80;74.20;;;;;;5091070;28;19908;-78
2022/09/10 03:10:08;;;;;;;14.75;14.15;;;13.80;74.10;;;;;;5091055;28;20056;-78
2022/09/10 03:12:34;;;;;;;;;;;13.80;74.00;;;;;;5056469;28;20035;-78
2022/09/10 03:14:59;;;;;;;11.05;10.55;;;13.80;74.10;;;;;;5089163;28;20249;-78
2022/09/10 03:17:25;;;;;;;11.00;10.50;;;13.80;73.90;;;;;;5089580;28;20053;-78
2022/09/10 03:19:51;;;;;;;11.23;10.73;;;13.70;74.00;;;;;;5091170;28;20534;-77
2022/09/10 03:22:17;;;;;;;13.10;12.50;;;13.60;74.00;;;;;;5072604;28;20028;-78
2022/09/10 03:24:43;;;;;;;12.32;11.77;;;13.60;74.00;;;;;;5090735;28;20146;-78
2022/09/10 03:27:09;;;;;;;12.13;11.63;;;13.60;74.10;;;;;;5090520;28;20081;-78
2022/09/10 03:29:35;;;;;;;15.38;14.70;;;13.50;74.00;;;;;;5090649;28;20028;-77
2022/09/10 03:32:01;;;;;;;17.35;16.65;;;13.50;74.10;;;;;;5090646;28;20106;-78
2022/09/10 03:34:27;;;;;;;;;;;13.40;74.10;;;;;;5072998;28;20035;-78
2022/09/10 03:36:53;;;;;;;10.52;10.02;;;13.30;74.20;;;;;;5089077;28;19912;-78
2022/09/10 03:39:18;;;;;;;;;;;13.20;74.30;;;;;;5091085;28;20476;-78
2022/09/10 03:41:45;;;;;;;12.98;12.38;;;13.20;74.30;;;;;;5072241;28;19908;-78
2022/09/10 03:44:11;;;;;;;13.18;12.57;;;13.20;74.20;;;;;;5089026;28;20039;-78
2022/09/10 03:46:37;;;;;;;16.85;16.15;;;13.30;74.20;;;;;;5072296;28;20046;-78
2022/09/10 03:49:04;;;;;;;15.38;14.70;;;13.30;74.10;;;;;;5089037;28;20107;-78
2022/09/10 03:51:30;;;;;;;14.77;14.15;;;13.20;74.00;;;;;;5088174;28;20036;-78
2022/09/10 03:53:57;;;;;;;14.50;13.90;;;13.20;74.20;;;;;;5088836;28;20511;-78
2022/09/10 03:56:23;;;;;;;14.50;13.90;;;13.20;74.30;;;;;;5088647;28;20051;-78
2022/09/10 03:58:50;;;;;;;15.60;14.90;;;13.20;74.30;;;;;;5071893;28;20404;-78
2022/09/10 04:01:16;;;;;;;16.45;15.75;;;13.30;74.30;;;;;;5071984;28;20047;-78
2022/09/10 04:03:42;;;;;;;15.18;14.57;;;13.30;74.20;;;;;;5088865;28;20079;-78
2022/09/10 04:06:12;;;;;;;19.33;18.52;;;13.30;74.10;;;;;;5089929;28;20036;-78
2022/09/10 04:08:38;;;;;;;20.85;20.05;;;13.30;74.00;;;;;;5089805;28;20086;-78
2022/09/10 04:11:04;;;;;;;22.88;21.98;;;13.40;73.90;;;;;;5071790;28;20028;-77
2022/09/10 04:13:31;;;;;;;22.38;21.48;;;13.40;73.80;;;;;;5088403;28;20030;-78
2022/09/10 04:15:56;;;;;;;;;;;13.40;73.70;;;;;;5090075;28;20408;-78
2022/09/10 04:18:23;;;;;;;19.20;18.40;;;13.40;73.60;;;;;;5088653;28;20008;-79
2022/09/10 04:20:48;;;;;;;;;;;13.40;73.50;;;;;;5089111;28;20517;-78
2022/09/10 04:23:15;;;;;;;14.57;13.98;;;13.40;73.50;;;;;;5088299;28;19908;-77
2022/09/10 04:25:40;;;;;;;;;;;13.40;73.50;;;;;;5088715;28;20423;-77
2022/09/10 04:28:06;;;;;;;22.92;22.02;;;13.30;73.50;;;;;;5088321;28;19915;-78
2022/09/10 04:30:32;;;;;;;19.40;18.60;;;13.30;73.50;;;;;;5088442;28;20383;-78
2022/09/10 04:32:58;;;;;;;21.38;20.55;;;13.30;73.90;;;;;;5088185;28;20053;-78
2022/09/10 04:35:25;;;;;;;;;;;13.30;73.90;;;;;;5089716;28;20024;-78
2022/09/10 04:37:51;;;;;;;18.65;17.88;;;13.30;73.50;;;;;;5071394;28;19915;-78
2022/09/10 04:40:16;;;;;;;19.25;18.45;;;13.20;73.40;;;;;;5088227;28;20044;-78
2022/09/10 04:42:42;;;;;;;20.15;19.35;;;13.20;73.60;;;;;;5054227;28;20024;-78
2022/09/10 04:45:08;;;;;;;16.92;16.23;;;13.10;73.70;;;;;;5088067;28;20028;-78
2022/09/10 04:47:34;;;;;;;;;;;13.10;73.80;;;;;;5088277;28;20012;-78
2022/09/10 04:50:00;;;;;;;19.05;18.25;;;13.00;73.90;;;;;;5089056;28;20421;-78
2022/09/10 04:52:26;;;;;;;15.60;14.93;;;12.90;73.90;;;;;;5070859;28;20032;-78
2022/09/10 04:54:52;;;;;;;16.10;15.40;;;12.90;74.10;;;;;;5054026;28;20035;-78
2022/09/10 04:57:17;;;;;;;15.02;14.43;;;12.80;74.00;;;;;;5070291;28;20052;-78
2022/09/10 04:59:43;;;;;;;14.35;13.75;;;12.80;74.00;;;;;;5088829;28;20028;-77
2022/09/10 05:02:09;;;;;;;15.13;14.52;;;12.80;74.00;;;;;;5087687;28;20537;-77
2022/09/10 05:04:35;;;;;;;15.27;14.65;;;12.80;74.00;;;;;;5087335;28;20064;-78
2022/09/10 05:07:00;;;;;;;16.35;15.65;;;12.80;74.00;;;;;;5088608;28;20032;-77
2022/09/10 05:09:33;;;;;;;16.10;15.40;;;12.90;74.00;;;;;;5087299;28;20496;-78
2022/09/10 05:11:59;;;;;;;15.57;14.88;;;12.90;74.00;;;;;;5071191;28;20078;-78
2022/09/10 05:14:26;;;;;;;15.50;14.82;;;12.90;73.90;;;;;;5070644;28;20368;-78
2022/09/10 05:16:51;;;;;;;13.93;13.32;;;12.90;73.90;;;;;;5070359;28;20024;-78
2022/09/10 05:19:17;;;;;;;14.30;13.70;;;12.90;73.90;;;;;;5087189;28;20055;-78
2022/09/10 05:21:44;;;;;;;16.23;15.52;;;12.90;73.90;;;;;;5087110;28;20141;-78
2022/09/10 05:24:11;;;;;;;15.05;14.45;;;12.90;73.90;;;;;;5088469;28;20088;-78
2022/09/10 05:26:36;;;;;;;18.80;18.00;;;12.80;74.00;;;;;;5088399;28;20035;-78
2022/09/10 05:29:02;;;;;;;22.38;21.48;;;12.80;74.10;;;;;;5086946;28;20028;-78
2022/09/10 05:31:28;;;;;;;18.17;17.45;;;12.80;74.00;;;;;;5053501;28;20041;-78
2022/09/10 05:33:54;;;;;;;19.10;18.30;;;12.80;73.80;;;;;;5086900;28;20534;-78
2022/09/10 05:36:20;;;;;;;15.68;14.98;;;12.80;73.80;;;;;;5086833;28;20028;-77
2022/09/10 05:38:46;;;;;;;14.40;13.80;;;12.80;73.80;;;;;;5088386;28;20027;-78
2022/09/10 05:41:12;;;;;;;15.77;15.07;;;12.80;73.80;;;;;;5069932;28;20028;-78
2022/09/10 05:43:39;;;;;;;19.58;18.77;;;12.80;73.80;;;;;;5086682;28;20468;-78
2022/09/10 05:46:04;;;;;;;20.95;20.15;;;12.80;73.80;;;;;;5070132;28;20524;-78
2022/09/10 05:48:30;;;;;;;17.10;16.40;;;12.80;73.70;;;;;;5053270;28;20119;-78
2022/09/10 05:50:56;;;;;;;14.77;14.18;;;12.80;73.70;;;;;;5086660;28;20076;-78
2022/09/10 05:53:22;;;;;;;19.35;18.55;;;12.80;73.70;;;;;;5087931;28;20028;-78
2022/09/10 05:55:48;;;;;;;20.52;19.73;;;12.80;74.20;;;;;;5086665;28;20027;-78
2022/09/10 05:58:15;;;;;;;20.70;19.90;;;12.80;73.70;;;;;;5086184;28;20052;-77
2022/09/10 06:00:42;;;;;;;22.98;22.08;;;12.80;73.60;;;;;;5086188;28;20484;-78
2022/09/10 06:03:08;;;;;;;17.38;16.67;;;12.80;73.50;;;;;;5087889;28;20065;-77
2022/09/10 06:05:33;;;;;;;13.68;13.07;;;12.80;73.50;;;;;;5087874;28;20019;-78
2022/09/10 06:07:59;;;;;;;13.18;12.57;;;12.70;73.50;;;;;;5086414;28;20032;-78
2022/09/10 06:10:26;;;;;;;16.00;15.30;;;12.70;73.50;;;;;;5069979;28;20082;-78
2022/09/10 06:12:51;;;;;;;;;;;12.80;73.60;;;;;;5070333;28;20046;-78
2022/09/10 06:15:18;;;;;;;14.35;13.75;;;12.80;73.70;;;;;;5069114;28;20427;-78
2022/09/10 06:17:45;;;;;;;12.18;11.68;;;12.80;73.60;;;;;;5087858;28;20092;-78
2022/09/10 06:20:12;;;;;;;12.07;11.57;;;12.80;73.50;;;;;;5086349;28;20044;-78
2022/09/10 06:22:38;;;;;;;15.70;15.00;;;12.80;73.60;;;;;;5069641;28;20118;-77
2022/09/10 06:25:05;;;;;;;;;;;12.80;73.70;;;;;;5069841;28;20048;-78
2022/09/10 06:27:31;;;;;;;13.68;13.07;;;12.80;73.70;;;;;;5087602;28;20345;-78
2022/09/10 06:29:57;;;;;;;13.40;12.80;;;12.80;73.60;;;;;;5085910;28;20386;-78
2022/09/10 06:32:23;;;;;;;11.30;10.80;;;12.80;73.70;;;;;;5069232;28;20033;-78
2022/09/10 06:34:49;;;;;;;15.98;15.27;;;12.80;73.70;;;;;;5086220;28;20057;-78
2022/09/10 06:37:15;;;;;;;12.63;12.05;;;12.80;73.70;;;;;;5087248;28;20039;-77
2022/09/10 06:39:41;;;;;;;;;;;12.80;73.70;;;;;;5069964;28;20067;-78
2022/09/10 06:42:06;;;;;;;12.32;11.77;;;12.80;73.90;;;;;;5087520;28;20331;-77
2022/09/10 06:44:32;;;;;;;13.15;12.55;;;12.80;73.80;;;;;;5069282;28;20028;-78
2022/09/10 06:46:58;;;;;;;13.27;12.68;;;12.80;73.80;;;;;;5085951;28;20431;-77
2022/09/10 06:49:24;;;;;;;12.57;12.00;;;12.90;73.90;;;;;;5069407;28;20058;-77
2022/09/10 06:51:50;;;;;;;13.30;12.70;;;12.90;73.90;;;;;;5085900;28;20055;-77
2022/09/10 06:54:17;;;;;;;13.48;12.88;;;13.00;73.90;;;;;;5087117;28;20040;-78
2022/09/10 06:56:45;;;;;;;16.00;15.30;;;13.00;73.90;;;;;;5085958;28;20496;-78
2022/09/10 06:59:13;;;;;;;15.48;14.82;;;13.10;73.90;;;;;;5087459;28;20314;-78
2022/09/10 07:01:40;;;;;;;18.33;17.58;;;13.10;73.90;;;;;;5069156;28;20032;-78
2022/09/10 07:04:07;;;;;;;19.00;18.20;;;13.20;73.80;;;;;;5087089;28;20016;-77
2022/09/10 07:06:35;;;;;;;21.05;20.25;;;13.30;73.70;;;;;;5085653;28;20027;-78
2022/09/10 07:09:01;;;;;;;23.00;22.10;;;13.30;73.50;;;;;;5085721;28;20024;-77
2022/09/10 07:11:29;;;;;;;20.92;20.13;;;13.40;73.50;;;;;;5086012;28;20020;-78
2022/09/10 07:13:55;;;;;;;14.02;13.43;;;13.40;73.50;;;;;;5085817;28;20028;-77
2022/09/10 07:16:22;;;;;;;14.75;14.15;;;13.50;73.50;;;;;;5085699;28;20034;-77
2022/09/10 07:18:50;;;;;;;12.40;11.82;;;13.50;73.50;;;;;;5086019;28;20043;-77
2022/09/10 07:21:17;;;;;;;16.23;15.52;;;13.50;73.60;;;;;;5087071;28;20430;-78
2022/09/10 07:23:44;;;;;;;16.23;15.52;;;13.60;73.70;;;;;;5085765;28;20107;-78
2022/09/10 07:26:15;;;;;;;14.50;13.90;;;13.60;73.70;;;;;;5068643;28;20193;-78
2022/09/10 07:28:42;;;;;;;15.95;15.25;;;13.70;73.70;;;;;;5090028;28;20032;-77
2022/09/10 07:31:13;;;;;;;;;;;13.80;73.70;;;;;;5089317;28;20486;-78
2022/09/10 07:33:39;;;;;;;16.25;15.55;;;13.90;73.60;;;;;;5089046;28;19993;-77
2022/09/10 07:36:05;;;;;;;13.77;13.18;;;14.10;73.60;;;;;;5089004;28;20098;-77
2022/09/10 07:38:31;;;;;;;14.38;13.77;;;14.20;73.50;;;;;;5090279;28;20032;-77
2022/09/10 07:41:00;;;;;;;;;;;14.40;73.60;;;;;;5090533;28;20040;-77
2022/09/10 07:43:25;;;;;;;5.80;5.50;;;14.50;73.90;;;;;;5088791;28;19912;-77
2022/09/10 07:45:51;;;;;;;6.53;6.13;;;14.90;74.00;;;;;;5088451;28;20039;-77
2022/09/10 07:48:17;;;;;;;3.40;3.20;;;15.60;75.30;;;;;;5071812;28;20062;-77
2022/09/10 07:50:43;;;;;;;7.32;6.93;;;17.00;75.70;;;;;;5071486;28;20044;-77
2022/09/10 07:53:09;;;;;;;4.43;4.13;;;18.10;74.00;;;;;;5088552;28;20038;-77
2022/09/10 07:55:35;;;;;;;3.10;2.90;;;18.60;73.00;;;;;;5088279;28;20438;-77
2022/09/10 07:58:00;;;;;;;4.50;4.20;;;18.70;72.40;;;;;;5054838;28;20382;-77
2022/09/10 08:00:26;;;;;;;7.72;7.32;;;18.70;72.70;;;;;;5071484;28;20032;-77
2022/09/10 08:02:52;;;;;;;4.72;4.43;;;18.90;73.10;;;;;;5071361;28;20084;-77
2022/09/10 08:05:17;;;;;;;;;;;19.30;73.50;;;;;;5088372;28;20032;-78
2022/09/10 08:07:43;;;;;;;4.05;3.75;;;20.30;74.10;;;;;;5089113;28;19924;-78
2022/09/10 08:10:09;;;;;;;;;;;21.40;73.70;;;;;;5089977;28;20452;-78
2022/09/10 08:12:36;;;;;;;1.23;1.13;;;22.60;73.30;;;;;;5089128;28;20248;-78
2022/09/10 08:15:03;;;;;;;0.80;0.80;;;23.70;72.90;;;;;;5089013;28;20391;-79
2022/09/10 08:17:29;;;;;;;0.45;0.45;;;24.60;72.90;;;;;;5089239;28;20340;-78
2022/09/10 08:19:55;;;;;;;0.25;0.25;;;25.30;72.60;;;;;;5071134;28;20395;-78
2022/09/10 08:22:22;;;;;;;0.05;0.05;;;26.00;72.60;;;;;;5089016;28;20733;-79
2022/09/10 08:24:48;;;;;;;0.10;0.10;;;26.70;72.80;;;;;;5088035;28;20028;-78
2022/09/10 08:27:14;;;;;;;0.00;0.00;;;27.30;73.00;;;;;;5087801;28;20041;-79
2022/09/10 08:29:41;;;;;;;0.00;0.00;;;27.90;73.00;;;;;;5088996;28;20478;-78
2022/09/10 08:32:07;;;;;;;0.10;0.10;;;28.20;73.20;;;;;;5087888;28;20452;-78
2022/09/10 08:34:33;;;;;;;0.00;0.00;;;28.30;73.80;;;;;;5088575;28;20047;-79
2022/09/10 08:37:00;;;;;;;0.00;0.00;;;28.80;74.00;;;;;;5087376;28;20494;-79
2022/09/10 08:39:26;;;;;;;0.10;0.10;;;29.20;73.90;;;;;;5087081;28;20384;-79
2022/09/10 08:41:58;;;;;;;0.00;0.00;;;29.60;74.20;;;;;;5070577;28;20028;-79
2022/09/10 08:44:26;;;;;;;0.00;0.00;;;30.00;74.30;;;;;;5088624;28;20381;-79
2022/09/10 08:47:13;;;;;;;0.10;0.10;;;30.30;74.20;;;;;;5087245;28;20024;-79
2022/09/10 08:49:51;;;;;;;0.00;0.00;;;30.70;74.20;;;;;;5102355;28;20368;-79
2022/09/10 08:52:37;;;;;;;0.00;0.00;;;31.00;73.90;;;;;;5110897;28;20023;-78
2022/09/10 08:55:15;;;;;;;0.00;0.00;;;31.10;73.80;;;;;;5109415;28;20024;-78
2022/09/10 08:57:46;;;;;;;0.00;0.00;;;31.20;73.90;;;;;;5110565;28;20058;-78
2022/09/10 09:00:22;;;;;;;0.00;0.00;;;31.30;74.10;;;;;;5110829;28;20501;-78
2022/09/10 09:03:12;;;;;;;0.00;0.00;;;31.50;74.20;;;;;;5110295;28;20024;-78
2022/09/10 09:05:52;;;;;;;0.00;0.00;;;31.70;73.80;;;;;;5109115;28;20032;-78
2022/09/10 09:08:27;;;;;;;0.00;0.00;;;31.70;74.10;;;;;;5109416;28;20018;-78
2022/09/10 09:11:10;;;;;;;0.00;0.00;;;31.70;74.80;;;;;;5108124;28;20015;-78
2022/09/10 09:13:59;;;;;;;0.00;0.00;;;31.70;75.10;;;;;;5106823;28;20101;-78
2022/09/10 09:16:48;;;;;;;0.00;0.00;;;31.70;75.80;;;;;;5109780;28;20267;-78
2022/09/10 09:19:33;;;;;;;0.00;0.00;;;31.90;75.80;;;;;;5108506;28;20024;-78
2022/09/10 09:22:29;;;;;;;0.00;0.00;;;31.80;75.90;;;;;;5107936;28;20061;-76
2022/09/10 09:25:06;;;;;;;0.00;0.00;;;32.00;76.30;;;;;;5107715;28;20495;-78
2022/09/10 09:27:37;;;;;;;0.00;0.00;;;32.30;75.60;;;;;;5109775;28;20107;-77
2022/09/10 09:30:06;;;;;;;0.00;0.00;;;32.50;74.80;;;;;;5109783;28;20016;-78
2022/09/10 09:32:43;;;;;;;0.00;0.00;;;32.40;74.90;;;;;;5104826;28;20043;-77
2022/09/10 09:35:16;;;;;;;0.00;0.00;;;32.60;75.70;;;;;;5108081;28;20068;-76
2022/09/10 09:37:47;;;;;;;0.00;0.00;;;32.20;74.00;;;;;;5109378;28;20050;-76
2022/09/10 09:40:26;;;;;;;0.00;0.00;;;31.10;73.10;;;;;;5088172;28;20073;-75
2022/09/10 09:43:03;;;;;;;0.00;0.00;;;30.50;74.10;;;;;;5102901;28;20429;-77
2022/09/10 09:45:37;;;;;;;0.00;0.00;;;29.80;74.00;;;;;;5088878;28;20047;-77
2022/09/10 09:48:12;;;;;;;0.00;0.00;;;29.20;73.60;;;;;;5096130;28;20476;-77
2022/09/10 09:50:41;;;;;;;0.00;0.00;;;28.60;73.70;;;;;;5105786;28;20019;-78
2022/09/10 09:53:14;;;;;;;0.00;0.00;;;27.80;73.60;;;;;;5109262;28;20085;-77
2022/09/10 09:56:04;;;;;;;0.25;0.10;;;27.10;74.00;;;;;;5089111;28;20047;-77
2022/09/10 09:58:35;;;;;;;0.00;0.00;;;26.70;74.50;;;;;;5087771;28;20442;-76
2022/09/10 10:01:03;;;;;;;0.00;0.00;;;26.30;74.60;;;;;;5088839;28;20042;-78
2022/09/10 10:03:57;;;;;;;0.00;0.00;;;26.00;74.50;;;;;;5088916;28;20024;-77
2022/09/10 10:06:43;;;;;;;0.00;0.00;;;25.70;74.70;;;;;;5083544;28;20039;-77
2022/09/10 10:09:25;;;;;;;0.00;0.00;;;25.50;74.70;;;;;;5087614;28;20059;-76
2022/09/10 10:12:05;;;;;;;0.13;0.08;;;25.40;74.60;;;;;;5089853;28;20107;-76
2022/09/10 10:14:30;;;;;;;0.00;0.00;;;25.20;74.80;;;;;;5087997;28;20077;-75
2022/09/10 10:16:59;;;;;;;0.00;0.00;;;25.10;74.90;;;;;;5089445;28;20024;-76
2022/09/10 10:19:30;;;;;;;0.00;0.00;;;24.90;75.00;;;;;;5087881;28;20475;-76
2022/09/10 10:21:58;;;;;;;0.00;0.00;;;24.80;75.30;;;;;;5088713;28;20035;-77
2022/09/10 10:24:32;;;;;;;0.00;0.00;;;24.80;75.50;;;;;;5087583;28;20027;-77
2022/09/10 10:26:59;;;;;;;0.00;0.00;;;25.10;76.30;;;;;;5088958;28;20483;-76
2022/09/10 10:29:26;;;;;;;0.00;0.00;;;25.40;75.90;;;;;;5089139;28;20046;-77
2022/09/10 10:31:53;;;;;;;0.00;0.00;;;25.70;75.60;;;;;;5088746;28;20056;-78
2022/09/10 10:34:52;;;;;;;0.00;0.00;;;25.90;74.80;;;;;;5088019;28;20115;-76
2022/09/10 10:37:24;;;;;;;0.00;0.00;;;25.70;74.30;;;;;;5085337;28;20062;-74
2022/09/10 10:40:02;;;;;;;0.00;0.00;;;25.40;74.50;;;;;;5088609;28;20028;-75
2022/09/10 10:42:37;;;;;;;0.00;0.00;;;25.30;74.90;;;;;;5087107;28;20479;-76
2022/09/10 10:45:37;;;;;;;0.00;0.00;;;25.20;74.60;;;;;;5086783;28;20330;-75
2022/09/10 10:48:42;;;;;;;0.00;0.00;;;24.90;74.30;;;;;;5087512;28;20103;-74
2022/09/10 10:51:19;;;;;;;0.00;0.00;;;24.80;74.40;;;;;;5066040;28;20036;-78
2022/09/10 10:54:17;;;;;;;0.00;0.00;;;24.80;74.00;;;;;;5086094;28;20081;-76
2022/09/10 10:57:16;;;;;;;0.00;0.00;;;24.70;74.00;;;;;;5064684;28;20036;-77
2022/09/10 11:00:02;;;;;;;0.00;0.00;;;24.50;73.90;;;;;;5087730;28;20535;-75
2022/09/10 11:02:48;;;;;;;0.00;0.00;;;24.30;74.00;;;;;;5090148;28;20074;-75
2022/09/10 11:05:34;;;;;;;0.00;0.00;;;24.20;74.10;;;;;;5090176;28;20120;-75
2022/09/10 11:08:19;;;;;;;0.00;0.00;;;24.10;74.30;;;;;;5089768;28;20028;-75
2022/09/10 11:10:49;;;;;;;0.00;0.00;;;24.20;74.20;;;;;;5090986;28;20134;-77
2022/09/10 11:13:24;;;;;;;0.00;0.00;;;24.30;74.40;;;;;;5089556;28;20364;-74
2022/09/10 11:16:03;;;;;;;0.00;0.00;;;24.80;74.40;;;;;;5089469;28;20024;-76
2022/09/10 11:18:33;;;;;;;0.00;0.00;;;24.90;73.50;;;;;;5091401;28;20008;-75
2022/09/10 11:21:18;;;;;;;0.00;0.00;;;24.80;73.00;;;;;;5091114;28;20024;-74
2022/09/10 11:24:25;;;;;;;0.00;0.00;;;24.40;73.20;;;;;;5090331;28;20325;-74
2022/09/10 11:27:15;;;;;;;0.00;0.00;;;24.30;73.80;;;;;;5048114;28;20013;-75
2022/09/10 11:30:10;;;;;;;0.00;0.00;;;24.30;73.70;;;;;;5048055;28;20037;-74
2022/09/10 11:32:38;;;;;;;0.00;0.00;;;24.30;73.90;;;;;;5084401;28;20104;-75
2022/09/10 11:35:22;;;;;;;0.00;0.00;;;24.20;74.20;;;;;;5091251;28;20044;-75
2022/09/10 11:38:10;;;;;;;0.00;0.00;;;24.30;74.20;;;;;;5089170;28;20024;-76
2022/09/10 11:41:13;;;;;;;0.00;0.00;;;24.60;73.90;;;;;;5091513;28;20519;-76
2022/09/10 11:43:58;;;;;;;0.00;0.00;;;24.70;73.70;;;;;;5090746;28;20028;-76
2022/09/10 11:46:28;;;;;;;0.00;0.00;;;24.90;74.10;;;;;;5091255;28;20026;-69
2022/09/10 11:48:54;;;;;;;0.00;0.00;;;24.90;74.10;;;;;;5090722;28;20016;-76
2022/09/10 11:51:26;;;;;;;0.00;0.00;;;24.80;74.40;;;;;;5091629;28;20032;-76
2022/09/10 11:53:54;;;;;;;0.00;0.00;;;24.90;75.20;;;;;;5092059;28;20119;-78
2022/09/10 11:56:41;;;;;;;0.00;0.00;;;25.50;75.80;;;;;;5089460;28;20104;-75
2022/09/10 11:59:20;;;;;;;0.00;0.00;;;25.90;75.00;;;;;;5089803;28;20024;-76
2022/09/10 12:02:13;;;;;;;0.00;0.00;;;25.70;74.50;;;;;;5091255;28;20157;-76
2022/09/10 12:04:48;;;;;;;0.00;0.00;;;25.40;74.40;;;;;;5090479;28;20020;-77
2022/09/10 12:07:52;;;;;;;0.00;0.00;;;25.20;74.70;;;;;;5091826;28;20065;-79
2022/09/10 12:10:39;;;;;;;0.00;0.00;;;25.00;74.80;;;;;;5106833;28;20028;-76
2022/09/10 12:13:11;;;;;;;0.00;0.00;;;25.20;76.00;;;;;;5089923;28;20492;-76
2022/09/10 12:15:38;;;;;;;0.00;0.00;;;25.90;76.60;;;;;;5088552;28;20669;-77
2022/09/10 12:18:05;;;;;;;0.00;0.00;;;26.90;77.30;;;;;;5091060;28;20024;-77
2022/09/10 12:20:36;;;;;;;0.00;0.00;;;28.20;77.30;;;;;;5090878;28;20384;-77
2022/09/10 12:23:03;;;;;;;0.00;0.00;;;28.70;75.70;;;;;;5092555;28;20063;-76
2022/09/10 12:25:32;;;;;;;0.00;0.00;;;28.80;76.20;;;;;;5110963;28;20012;-78
2022/09/10 12:28:00;;;;;;;0.00;0.00;;;29.30;76.80;;;;;;5110681;28;20027;-77
2022/09/10 12:30:26;;;;;;;2.05;0.35;;;29.90;77.10;;;;;;5110587;28;20019;-77
2022/09/10 12:32:53;;;;;;;0.00;0.00;;;30.00;75.90;;;;;;5110262;28;20026;-78
2022/09/10 12:35:34;;;;;;;0.00;0.00;;;29.80;76.10;;;;;;5110715;28;20045;-79
2022/09/10 12:38:40;;;;;;;0.00;0.00;;;30.00;77.10;;;;;;5109567;28;20552;-76
2022/09/10 12:41:12;;;;;;;0.00;0.00;;;30.70;77.30;;;;;;5110951;28;20136;-78
2022/09/10 12:43:40;;;;;;;0.00;0.00;;;30.70;75.90;;;;;;5110328;28;20037;-78
2022/09/10 12:46:06;;;;;;;0.00;0.00;;;30.30;75.20;;;;;;5110970;28;20026;-76
2022/09/10 12:48:38;;;;;;;0.00;0.00;;;29.50;74.80;;;;;;5112521;28;20387;-79
2022/09/10 12:51:19;;;;;;;0.00;0.00;;;28.80;74.90;;;;;;5110737;28;20026;-80
2022/09/10 12:54:00;;;;;;;0.00;0.00;;;28.80;76.70;;;;;;5110617;28;20023;-81
2022/09/10 12:56:51;;;;;;;0.40;0.20;;;29.30;77.50;;;;;;5109852;28;20039;-82
2022/09/10 12:59:20;;;;;;;0.00;0.00;;;30.10;77.70;;;;;;5110603;28;20047;-79
2022/09/10 13:01:47;;;;;;;0.00;0.00;;;31.00;77.50;;;;;;5111142;28;20038;-79